Huvudsida
METAR-TAF:

METAR-TAF

Flygplatser :

Bonriki International Airport

Tarawa, Kiribati

latitud: 01-21N, longitud: 172-55E, höjd: 2 m

Aktuellt väderrapport

Denna rapport gjordes för 29 minuter sedan, klockan 05:00 UTC
Vind 13 kt från nordost
Temperatur 28°C
Fuktighet 89%
Tryck 1007 hPa
Sikt 10 km eller mer
Spridda moln på en höjd av 1800 ft, Högtornande cumulus.
Brutna moln på en höjd av 4000 ft
skurar i närheten

METAR: NGTA 210500Z 05013KT 9999 VCSH SCT018TCU BKN040 28/26 Q1007 RMK -RESH

Tid: 19:29 (05:29 UTC)

Väderprognos

Denna rapport gjordes för 6 timmar och 24 minuter sedan, klockan 23:05 UTC
Prognos gäller från 21 kl. 00 UTC till 21 kl. 24 UTC
Vind 10 kt från ost
Sikt 10 km eller mer
Spridda moln på en höjd av 1700 ft

TAF: NGTA 202305Z 2100/2124 09010KT 9999 SCT017

Aktuella väderrapporter och prognoser från 4000 flygplatser (METAR- och TAF-rapporter).

De tillgängliga stationerna syns som gula och röda prickar på kartan.

För musen över prickarna för att se namnen på stationerna.

Klicka sedan för att få väderrapporter och prognoser.

För att ändra kartan: Klicka på de gröna knapparna med ett svart kors på för att zooma in; den gröna knappen med ett streck på för att zooma ut; eller på de gröna pilarna för angränsande kartor.


METAR-TAF: